DLH712 EDDF-RKSI
Flight info
| Callsign | DLH712 |
|---|---|
| Flight time | N/A |
| Altitude | 31000 |
| Route | SULUS7S/18 SULUS Z650 VEMUT/N0480F370 DCT PEPIK DCT BUDOP DCT DINRO N743 UDROS UM859 OSDIP/N0491F390 UM859 KARDE UN644 ROLIN DCT TAGAR DCT BT DCT BARAD M747 SUBUT T916 BALUN/K0893F390 T916 REGMU/K0889F410 T916 PIGAL M610 RULAD/K0891S1250 A343 POSOT B215 FKG W188 LIKMI W270 DKO W69 HUR B339 LADIX W34 VAPGU W100 ORAVA W201 UNSEK A326 DONVO G597 AGAVO/N0449F290 Y644 REBIT REBIT2H |
| Aircraft | A359/H-SADE2E3GHIJ1J2J3J4J5M1P2RWXYZ/LB1D1 |
Departure
| Time | 2026-05-05 21:11 |
|---|---|
| Airport | Frankfurt Main Airport (EDDF) |
Arrival
| Time | N/A |
|---|---|
| Airport | Incheon International Airport (RKSI) |
| Time | Latitude | Longitude | Altitude | Speed | Heading |
|---|---|---|---|---|---|
| 2026-05-05 20:37 | 50.04726 | 8.56275 | 370 ft | 0 kts | 340° |
| 2026-05-05 20:59 | 50.04722 | 8.56277 | 368 ft | 3 kts | 340° |
| 2026-05-05 20:59 | 50.04693 | 8.56294 | 362 ft | 4 kts | 340° |
| 2026-05-05 20:59 | 50.04672 | 8.56306 | 364 ft | 4 kts | 330° |
| 2026-05-05 21:00 | 50.04654 | 8.56333 | 369 ft | 4 kts | 290° |
| 2026-05-05 21:00 | 50.04652 | 8.56371 | 362 ft | 4 kts | 253° |
| 2026-05-05 21:00 | 50.04660 | 8.56408 | 368 ft | 4 kts | 249° |
| 2026-05-05 21:00 | 50.04662 | 8.56416 | 367 ft | 0 kts | 250° |
| 2026-05-05 21:04 | 50.04661 | 8.56410 | 367 ft | 3 kts | 250° |
| 2026-05-05 21:04 | 50.04647 | 8.56352 | 362 ft | 9 kts | 250° |
| 2026-05-05 21:04 | 50.04617 | 8.56225 | 366 ft | 15 kts | 250° |
| 2026-05-05 21:05 | 50.04579 | 8.56065 | 369 ft | 16 kts | 250° |
| 2026-05-05 21:05 | 50.04508 | 8.55950 | 369 ft | 15 kts | 201° |
| 2026-05-05 21:05 | 50.04409 | 8.55910 | 370 ft | 15 kts | 182° |
| 2026-05-05 21:05 | 50.04306 | 8.55950 | 365 ft | 16 kts | 162° |
| 2026-05-05 21:06 | 50.04223 | 8.55868 | 365 ft | 16 kts | 244° |
| 2026-05-05 21:06 | 50.04182 | 8.55702 | 365 ft | 17 kts | 250° |
| 2026-05-05 21:06 | 50.04141 | 8.55529 | 365 ft | 17 kts | 250° |
| 2026-05-05 21:06 | 50.04100 | 8.55356 | 362 ft | 17 kts | 250° |
| 2026-05-05 21:07 | 50.04060 | 8.55188 | 366 ft | 16 kts | 250° |
| 2026-05-05 21:07 | 50.04021 | 8.55024 | 368 ft | 17 kts | 249° |
| 2026-05-05 21:07 | 50.03978 | 8.54849 | 366 ft | 18 kts | 250° |
| 2026-05-05 21:07 | 50.03933 | 8.54660 | 362 ft | 19 kts | 250° |
| 2026-05-05 21:08 | 50.03885 | 8.54459 | 363 ft | 20 kts | 250° |
| 2026-05-05 21:08 | 50.03815 | 8.54266 | 361 ft | 21 kts | 242° |
| 2026-05-05 21:08 | 50.03760 | 8.54055 | 357 ft | 21 kts | 249° |
| 2026-05-05 21:08 | 50.03707 | 8.53837 | 357 ft | 22 kts | 250° |
| 2026-05-05 21:09 | 50.03653 | 8.53611 | 353 ft | 22 kts | 249° |
| 2026-05-05 21:09 | 50.03597 | 8.53388 | 352 ft | 23 kts | 249° |
| 2026-05-05 21:09 | 50.03542 | 8.53156 | 351 ft | 23 kts | 249° |
| 2026-05-05 21:09 | 50.03484 | 8.52918 | 352 ft | 24 kts | 247° |
| 2026-05-05 21:10 | 50.03420 | 8.52680 | 347 ft | 24 kts | 243° |
| 2026-05-05 21:10 | 50.03282 | 8.52594 | 350 ft | 22 kts | 179° |
| 2026-05-05 21:10 | 50.03078 | 8.52596 | 342 ft | 49 kts | 180° |
| 2026-05-05 21:10 | 50.02552 | 8.52601 | 352 ft | 101 kts | 179° |
| 2026-05-05 21:11 | 50.01688 | 8.52610 | 337 ft | 146 kts | 179° |
| 2026-05-05 21:11 | 50.00535 | 8.52620 | 541 ft | 165 kts | 180° |
| 2026-05-05 21:11 | 49.99441 | 8.52638 | 1236 ft | 155 kts | 180° |
| 2026-05-05 21:11 | 49.98363 | 8.52673 | 1636 ft | 161 kts | 181° |
| 2026-05-05 21:12 | 49.97200 | 8.52871 | 1821 ft | 179 kts | 166° |
| 2026-05-05 21:12 | 49.96120 | 8.54031 | 1934 ft | 204 kts | 129° |
| 2026-05-05 21:12 | 49.95345 | 8.55982 | 2186 ft | 222 kts | 121° |
| 2026-05-05 21:12 | 49.94604 | 8.58139 | 2621 ft | 229 kts | 120° |
| 2026-05-05 21:13 | 49.94072 | 8.60495 | 3135 ft | 236 kts | 101° |
| 2026-05-05 21:13 | 49.93901 | 8.63118 | 3412 ft | 253 kts | 95° |
| 2026-05-05 21:13 | 49.93810 | 8.65936 | 3724 ft | 267 kts | 94° |
| 2026-05-05 21:13 | 49.93490 | 8.68783 | 4203 ft | 269 kts | 115° |
| 2026-05-05 21:14 | 49.92383 | 8.71067 | 4732 ft | 266 kts | 143° |
| 2026-05-05 21:14 | 49.90902 | 8.72792 | 5273 ft | 268 kts | 148° |
| 2026-05-05 21:14 | 49.89371 | 8.74467 | 5838 ft | 272 kts | 146° |
| 2026-05-05 21:14 | 49.88053 | 8.76617 | 6394 ft | 279 kts | 126° |
| 2026-05-05 21:15 | 49.87057 | 8.79216 | 7001 ft | 282 kts | 121° |
| 2026-05-05 21:15 | 49.86102 | 8.81894 | 7560 ft | 286 kts | 121° |
| 2026-05-05 21:15 | 49.85135 | 8.84603 | 8161 ft | 289 kts | 122° |
| 2026-05-05 21:15 | 49.84146 | 8.87341 | 8785 ft | 293 kts | 122° |
| 2026-05-05 21:16 | 49.83144 | 8.90106 | 9406 ft | 296 kts | 122° |
| 2026-05-05 21:16 | 49.82130 | 8.92899 | 9983 ft | 300 kts | 122° |
| 2026-05-05 21:16 | 49.81082 | 8.95779 | 10287 ft | 315 kts | 122° |
| 2026-05-05 21:16 | 49.79980 | 8.98800 | 10553 ft | 330 kts | 121° |
| 2026-05-05 21:17 | 49.78827 | 9.01963 | 10826 ft | 345 kts | 122° |
| 2026-05-05 21:17 | 49.77620 | 9.05271 | 11084 ft | 359 kts | 121° |
| 2026-05-05 21:17 | 49.76431 | 9.08740 | 11392 ft | 373 kts | 116° |
| 2026-05-05 21:17 | 49.75628 | 9.12600 | 11902 ft | 379 kts | 106° |
| 2026-05-05 21:18 | 49.75103 | 9.15872 | 12376 ft | 382 kts | 105° |
| 2026-05-05 21:18 | 49.74661 | 9.18692 | 12780 ft | 384 kts | 105° |
| 2026-05-05 21:18 | 49.74032 | 9.22704 | 13407 ft | 386 kts | 105° |
| 2026-05-05 21:18 | 49.73380 | 9.26764 | 13948 ft | 389 kts | 106° |